sensor_id;sensor_type;location;lat;lon;timestamp;pressure;altitude;pressure_sealevel;temperature;humidity
84522;BME280;74758;50.066;20.008;2023-12-20T00:01:11;98709.09;;;6.91;44.20
84522;BME280;74758;50.066;20.008;2023-12-20T00:03:14;98710.02;;;6.88;44.63
84522;BME280;74758;50.066;20.008;2023-12-20T00:05:16;98705.98;;;6.87;44.50
84522;BME280;74758;50.066;20.008;2023-12-20T00:07:18;98703.77;;;6.84;44.62
84522;BME280;74758;50.066;20.008;2023-12-20T00:09:20;98698.96;;;6.81;44.91
84522;BME280;74758;50.066;20.008;2023-12-20T00:11:22;98697.41;;;6.79;44.58
84522;BME280;74758;50.066;20.008;2023-12-20T00:13:24;98693.94;;;6.76;44.88
84522;BME280;74758;50.066;20.008;2023-12-20T00:15:26;98698.65;;;6.74;44.60
84522;BME280;74758;50.066;20.008;2023-12-20T00:17:28;98701.20;;;6.73;44.94
84522;BME280;74758;50.066;20.008;2023-12-20T00:19:32;98694.02;;;6.71;45.04
84522;BME280;74758;50.066;20.008;2023-12-20T00:21:35;98689.48;;;6.69;45.07
84522;BME280;74758;50.066;20.008;2023-12-20T00:23:38;98686.45;;;6.65;45.18
84522;BME280;74758;50.066;20.008;2023-12-20T00:25:40;98692.12;;;6.64;45.12
84522;BME280;74758;50.066;20.008;2023-12-20T00:27:43;98685.65;;;6.65;45.09
84522;BME280;74758;50.066;20.008;2023-12-20T00:29:47;98680.34;;;6.65;45.05
84522;BME280;74758;50.066;20.008;2023-12-20T00:31:52;98683.23;;;6.69;45.18
84522;BME280;74758;50.066;20.008;2023-12-20T00:33:54;98676.84;;;6.70;45.12
84522;BME280;74758;50.066;20.008;2023-12-20T00:35:57;98670.13;;;6.71;45.06
84522;BME280;74758;50.066;20.008;2023-12-20T00:37:59;98663.86;;;6.68;45.18
84522;BME280;74758;50.066;20.008;2023-12-20T00:40:02;98659.42;;;6.67;45.50
84522;BME280;74758;50.066;20.008;2023-12-20T00:42:05;98662.21;;;6.65;45.56
84522;BME280;74758;50.066;20.008;2023-12-20T00:44:08;98659.75;;;6.63;45.19
84522;BME280;74758;50.066;20.008;2023-12-20T00:46:10;98659.21;;;6.61;45.40
84522;BME280;74758;50.066;20.008;2023-12-20T00:48:14;98652.86;;;6.60;45.40
84522;BME280;74758;50.066;20.008;2023-12-20T00:50:16;98654.30;;;6.59;45.49
84522;BME280;74758;50.066;20.008;2023-12-20T00:52:19;98654.13;;;6.59;45.48
84522;BME280;74758;50.066;20.008;2023-12-20T00:54:21;98652.67;;;6.60;45.43
84522;BME280;74758;50.066;20.008;2023-12-20T00:56:23;98659.09;;;6.60;45.05
84522;BME280;74758;50.066;20.008;2023-12-20T00:58:25;98662.66;;;6.62;45.46
84522;BME280;74758;50.066;20.008;2023-12-20T01:00:28;98666.52;;;6.62;45.58
84522;BME280;74758;50.066;20.008;2023-12-20T01:02:30;98659.32;;;6.60;45.42
84522;BME280;74758;50.066;20.008;2023-12-20T01:04:31;98660.20;;;6.60;45.62
84522;BME280;74758;50.066;20.008;2023-12-20T01:06:34;98657.80;;;6.59;45.53
84522;BME280;74758;50.066;20.008;2023-12-20T01:08:37;98651.38;;;6.61;45.58
84522;BME280;74758;50.066;20.008;2023-12-20T01:10:39;98651.48;;;6.60;45.77
84522;BME280;74758;50.066;20.008;2023-12-20T01:12:42;98651.87;;;6.59;45.46
84522;BME280;74758;50.066;20.008;2023-12-20T01:14:44;98651.23;;;6.58;45.80
84522;BME280;74758;50.066;20.008;2023-12-20T01:16:47;98660.68;;;6.58;45.47
84522;BME280;74758;50.066;20.008;2023-12-20T01:18:50;98656.98;;;6.58;45.70
84522;BME280;74758;50.066;20.008;2023-12-20T01:20:53;98651.77;;;6.58;45.63
84522;BME280;74758;50.066;20.008;2023-12-20T01:22:55;98640.95;;;6.59;45.76
84522;BME280;74758;50.066;20.008;2023-12-20T01:24:58;98639.13;;;6.59;45.42
84522;BME280;74758;50.066;20.008;2023-12-20T01:27:00;98633.86;;;6.57;45.61
84522;BME280;74758;50.066;20.008;2023-12-20T01:29:02;98635.40;;;6.58;45.64
84522;BME280;74758;50.066;20.008;2023-12-20T01:31:06;98634.96;;;6.59;45.67
84522;BME280;74758;50.066;20.008;2023-12-20T01:33:09;98629.86;;;6.59;45.62
84522;BME280;74758;50.066;20.008;2023-12-20T01:35:11;98625.62;;;6.60;45.44
84522;BME280;74758;50.066;20.008;2023-12-20T01:37:15;98625.95;;;6.60;45.42
84522;BME280;74758;50.066;20.008;2023-12-20T01:39:17;98618.70;;;6.59;45.60
84522;BME280;74758;50.066;20.008;2023-12-20T01:41:30;98609.56;;;6.58;45.57
84522;BME280;74758;50.066;20.008;2023-12-20T01:43:32;98597.64;;;6.54;45.41
84522;BME280;74758;50.066;20.008;2023-12-20T01:45:48;98586.70;;;6.52;45.48
84522;BME280;74758;50.066;20.008;2023-12-20T01:47:50;98588.27;;;6.49;45.65
84522;BME280;74758;50.066;20.008;2023-12-20T01:49:53;98579.46;;;6.48;45.51
84522;BME280;74758;50.066;20.008;2023-12-20T01:51:55;98580.52;;;6.48;45.34
84522;BME280;74758;50.066;20.008;2023-12-20T01:53:57;98575.05;;;6.49;45.19
84522;BME280;74758;50.066;20.008;2023-12-20T01:56:01;98572.57;;;6.49;45.34
84522;BME280;74758;50.066;20.008;2023-12-20T01:58:04;98566.06;;;6.50;45.45
84522;BME280;74758;50.066;20.008;2023-12-20T02:00:07;98566.27;;;6.49;45.82
84522;BME280;74758;50.066;20.008;2023-12-20T02:02:11;98563.17;;;6.49;46.02
84522;BME280;74758;50.066;20.008;2023-12-20T02:04:14;98559.80;;;6.47;45.82
84522;BME280;74758;50.066;20.008;2023-12-20T02:06:18;98554.87;;;6.44;45.47
84522;BME280;74758;50.066;20.008;2023-12-20T02:08:20;98550.12;;;6.42;45.39
84522;BME280;74758;50.066;20.008;2023-12-20T02:10:23;98550.05;;;6.39;45.73
84522;BME280;74758;50.066;20.008;2023-12-20T02:12:26;98547.73;;;6.37;45.64
84522;BME280;74758;50.066;20.008;2023-12-20T02:14:29;98548.56;;;6.35;45.04
84522;BME280;74758;50.066;20.008;2023-12-20T02:16:31;98549.63;;;6.38;45.11
84522;BME280;74758;50.066;20.008;2023-12-20T02:18:33;98546.95;;;6.38;45.10
84522;BME280;74758;50.066;20.008;2023-12-20T02:20:35;98546.38;;;6.37;45.52
84522;BME280;74758;50.066;20.008;2023-12-20T02:22:38;98548.89;;;6.32;45.73
84522;BME280;74758;50.066;20.008;2023-12-20T02:24:40;98538.70;;;6.28;45.48
84522;BME280;74758;50.066;20.008;2023-12-20T02:26:42;98536.41;;;6.29;45.29
84522;BME280;74758;50.066;20.008;2023-12-20T02:28:47;98533.77;;;6.29;45.47
84522;BME280;74758;50.066;20.008;2023-12-20T02:30:49;98537.23;;;6.29;45.39
84522;BME280;74758;50.066;20.008;2023-12-20T02:32:52;98536.30;;;6.30;45.20
84522;BME280;74758;50.066;20.008;2023-12-20T02:34:54;98535.15;;;6.31;45.76
84522;BME280;74758;50.066;20.008;2023-12-20T02:36:57;98530.95;;;6.33;45.83
84522;BME280;74758;50.066;20.008;2023-12-20T02:38:58;98536.48;;;6.36;45.54
84522;BME280;74758;50.066;20.008;2023-12-20T02:41:00;98530.67;;;6.37;45.61
84522;BME280;74758;50.066;20.008;2023-12-20T02:43:01;98527.53;;;6.37;45.39
84522;BME280;74758;50.066;20.008;2023-12-20T02:45:04;98520.67;;;6.38;45.30
84522;BME280;74758;50.066;20.008;2023-12-20T02:47:07;98523.39;;;6.36;45.34
84522;BME280;74758;50.066;20.008;2023-12-20T02:49:09;98519.33;;;6.34;45.05
84522;BME280;74758;50.066;20.008;2023-12-20T02:51:12;98519.60;;;6.33;45.27
84522;BME280;74758;50.066;20.008;2023-12-20T02:53:14;98515.90;;;6.34;45.28
84522;BME280;74758;50.066;20.008;2023-12-20T02:55:17;98520.56;;;6.34;45.33
84522;BME280;74758;50.066;20.008;2023-12-20T02:57:19;98522.82;;;6.34;45.08
84522;BME280;74758;50.066;20.008;2023-12-20T02:59:21;98529.96;;;6.35;45.24
84522;BME280;74758;50.066;20.008;2023-12-20T03:01:23;98538.04;;;6.34;45.39
84522;BME280;74758;50.066;20.008;2023-12-20T03:03:26;98538.86;;;6.33;45.32
84522;BME280;74758;50.066;20.008;2023-12-20T03:05:28;98539.60;;;6.32;45.39
84522;BME280;74758;50.066;20.008;2023-12-20T03:07:30;98537.08;;;6.31;45.66
84522;BME280;74758;50.066;20.008;2023-12-20T03:09:32;98537.29;;;6.29;45.39
84522;BME280;74758;50.066;20.008;2023-12-20T03:11:54;98537.69;;;6.26;45.65
84522;BME280;74758;50.066;20.008;2023-12-20T03:13:56;98533.28;;;6.22;45.74
84522;BME280;74758;50.066;20.008;2023-12-20T03:16:00;98533.65;;;6.18;45.73
84522;BME280;74758;50.066;20.008;2023-12-20T03:18:03;98534.67;;;6.14;45.37
84522;BME280;74758;50.066;20.008;2023-12-20T03:20:05;98534.18;;;6.12;45.65
84522;BME280;74758;50.066;20.008;2023-12-20T03:22:08;98527.09;;;6.09;45.95
84522;BME280;74758;50.066;20.008;2023-12-20T03:24:11;98525.05;;;6.08;45.71
84522;BME280;74758;50.066;20.008;2023-12-20T03:26:13;98525.48;;;6.05;46.10
84522;BME280;74758;50.066;20.008;2023-12-20T03:28:16;98524.86;;;6.02;45.79
84522;BME280;74758;50.066;20.008;2023-12-20T03:30:19;98526.45;;;6.00;45.90
84522;BME280;74758;50.066;20.008;2023-12-20T03:32:22;98520.02;;;5.97;46.26
84522;BME280;74758;50.066;20.008;2023-12-20T03:34:26;98520.88;;;5.95;46.17
84522;BME280;74758;50.066;20.008;2023-12-20T03:36:30;98516.35;;;5.91;46.31
84522;BME280;74758;50.066;20.008;2023-12-20T03:38:32;98526.74;;;5.88;46.03
84522;BME280;74758;50.066;20.008;2023-12-20T03:40:34;98528.91;;;5.87;46.50
84522;BME280;74758;50.066;20.008;2023-12-20T03:42:37;98529.29;;;5.86;46.25
84522;BME280;74758;50.066;20.008;2023-12-20T03:44:40;98533.14;;;5.88;45.95
84522;BME280;74758;50.066;20.008;2023-12-20T03:46:42;98531.52;;;5.91;46.12
84522;BME280;74758;50.066;20.008;2023-12-20T03:48:44;98532.30;;;5.97;45.96
84522;BME280;74758;50.066;20.008;2023-12-20T03:50:46;98527.45;;;6.02;45.62
84522;BME280;74758;50.066;20.008;2023-12-20T03:52:49;98531.11;;;6.09;45.40
84522;BME280;74758;50.066;20.008;2023-12-20T03:54:51;98531.82;;;6.17;44.88
84522;BME280;74758;50.066;20.008;2023-12-20T03:56:53;98534.77;;;6.25;44.98
84522;BME280;74758;50.066;20.008;2023-12-20T03:58:55;98534.27;;;6.33;44.81
84522;BME280;74758;50.066;20.008;2023-12-20T04:00:57;98529.40;;;6.41;44.81
84522;BME280;74758;50.066;20.008;2023-12-20T04:02:59;98526.16;;;6.49;44.54
84522;BME280;74758;50.066;20.008;2023-12-20T04:05:01;98527.73;;;6.57;44.32
84522;BME280;74758;50.066;20.008;2023-12-20T04:07:03;98520.30;;;6.64;43.91
84522;BME280;74758;50.066;20.008;2023-12-20T04:09:06;98515.17;;;6.73;43.67
84522;BME280;74758;50.066;20.008;2023-12-20T04:11:08;98512.77;;;6.81;43.26
84522;BME280;74758;50.066;20.008;2023-12-20T04:13:10;98516.52;;;6.88;43.37
84522;BME280;74758;50.066;20.008;2023-12-20T04:15:12;98519.73;;;6.95;43.16
84522;BME280;74758;50.066;20.008;2023-12-20T04:17:15;98519.23;;;7.01;42.83
84522;BME280;74758;50.066;20.008;2023-12-20T04:19:17;98520.30;;;7.07;42.61
84522;BME280;74758;50.066;20.008;2023-12-20T04:21:19;98523.87;;;7.12;42.67
84522;BME280;74758;50.066;20.008;2023-12-20T04:23:21;98518.33;;;7.17;42.57
84522;BME280;74758;50.066;20.008;2023-12-20T04:25:23;98518.83;;;7.23;42.04
84522;BME280;74758;50.066;20.008;2023-12-20T04:27:25;98518.61;;;7.30;41.93
84522;BME280;74758;50.066;20.008;2023-12-20T04:29:27;98517.55;;;7.36;41.52
84522;BME280;74758;50.066;20.008;2023-12-20T04:31:29;98509.13;;;7.42;41.34
84522;BME280;74758;50.066;20.008;2023-12-20T04:33:31;98511.89;;;7.48;40.82
84522;BME280;74758;50.066;20.008;2023-12-20T04:35:32;98507.04;;;7.54;40.68
84522;BME280;74758;50.066;20.008;2023-12-20T04:37:34;98511.55;;;7.60;40.42
84522;BME280;74758;50.066;20.008;2023-12-20T04:39:36;98515.55;;;7.66;40.42
84522;BME280;74758;50.066;20.008;2023-12-20T04:41:38;98514.20;;;7.71;40.24
84522;BME280;74758;50.066;20.008;2023-12-20T04:43:40;98513.50;;;7.75;39.69
84522;BME280;74758;50.066;20.008;2023-12-20T04:45:42;98517.30;;;7.79;39.82
84522;BME280;74758;50.066;20.008;2023-12-20T04:47:44;98520.63;;;7.83;39.77
84522;BME280;74758;50.066;20.008;2023-12-20T04:49:49;98520.45;;;7.87;40.06
84522;BME280;74758;50.066;20.008;2023-12-20T04:51:51;98517.77;;;7.90;39.71
84522;BME280;74758;50.066;20.008;2023-12-20T04:53:53;98524.56;;;7.92;40.11
84522;BME280;74758;50.066;20.008;2023-12-20T04:55:55;98527.60;;;7.93;40.32
84522;BME280;74758;50.066;20.008;2023-12-20T04:57:57;98533.58;;;7.95;40.51
84522;BME280;74758;50.066;20.008;2023-12-20T04:59:59;98533.02;;;7.95;40.91
84522;BME280;74758;50.066;20.008;2023-12-20T05:02:00;98533.19;;;7.95;41.22
84522;BME280;74758;50.066;20.008;2023-12-20T05:04:02;98528.44;;;7.93;41.78
84522;BME280;74758;50.066;20.008;2023-12-20T05:06:04;98533.32;;;7.92;42.25
84522;BME280;74758;50.066;20.008;2023-12-20T05:08:06;98535.48;;;7.91;42.63
84522;BME280;74758;50.066;20.008;2023-12-20T05:10:09;98529.02;;;7.91;43.11
84522;BME280;74758;50.066;20.008;2023-12-20T05:12:11;98532.41;;;7.90;43.28
84522;BME280;74758;50.066;20.008;2023-12-20T05:14:15;98538.33;;;7.91;43.84
84522;BME280;74758;50.066;20.008;2023-12-20T05:16:18;98534.30;;;7.87;44.62
84522;BME280;74758;50.066;20.008;2023-12-20T05:18:21;98530.85;;;7.83;45.22
84522;BME280;74758;50.066;20.008;2023-12-20T05:20:24;98530.94;;;7.80;46.13
84522;BME280;74758;50.066;20.008;2023-12-20T05:22:27;98534.41;;;7.76;46.71
84522;BME280;74758;50.066;20.008;2023-12-20T05:24:29;98536.59;;;7.73;47.09
84522;BME280;74758;50.066;20.008;2023-12-20T05:26:31;98536.73;;;7.72;47.62
84522;BME280;74758;50.066;20.008;2023-12-20T05:28:32;98535.21;;;7.67;47.97
84522;BME280;74758;50.066;20.008;2023-12-20T05:30:34;98532.03;;;7.63;48.81
84522;BME280;74758;50.066;20.008;2023-12-20T05:32:36;98528.60;;;7.61;49.36
84522;BME280;74758;50.066;20.008;2023-12-20T05:34:38;98532.34;;;7.56;50.80
84522;BME280;74758;50.066;20.008;2023-12-20T05:36:40;98528.82;;;7.51;51.42
84522;BME280;74758;50.066;20.008;2023-12-20T05:38:42;98523.43;;;7.45;52.45
84522;BME280;74758;50.066;20.008;2023-12-20T05:40:44;98525.11;;;7.40;53.01
84522;BME280;74758;50.066;20.008;2023-12-20T05:42:46;98520.41;;;7.35;53.11
84522;BME280;74758;50.066;20.008;2023-12-20T05:44:47;98524.55;;;7.32;53.84
84522;BME280;74758;50.066;20.008;2023-12-20T05:46:52;98523.30;;;7.28;54.49
84522;BME280;74758;50.066;20.008;2023-12-20T05:48:54;98533.05;;;7.25;55.52
84522;BME280;74758;50.066;20.008;2023-12-20T05:50:57;98526.30;;;7.20;55.56
84522;BME280;74758;50.066;20.008;2023-12-20T05:52:59;98518.48;;;7.15;55.61
84522;BME280;74758;50.066;20.008;2023-12-20T05:55:00;98518.16;;;7.13;56.27
84522;BME280;74758;50.066;20.008;2023-12-20T05:57:03;98515.60;;;7.10;56.58
84522;BME280;74758;50.066;20.008;2023-12-20T05:59:05;98510.08;;;7.08;57.39
84522;BME280;74758;50.066;20.008;2023-12-20T06:01:07;98509.70;;;7.04;57.31
84522;BME280;74758;50.066;20.008;2023-12-20T06:03:10;98508.39;;;7.01;57.58
84522;BME280;74758;50.066;20.008;2023-12-20T06:05:13;98509.79;;;6.97;58.72
84522;BME280;74758;50.066;20.008;2023-12-20T06:07:16;98513.87;;;6.92;58.63
84522;BME280;74758;50.066;20.008;2023-12-20T06:09:19;98518.42;;;6.86;60.41
84522;BME280;74758;50.066;20.008;2023-12-20T06:11:22;98528.86;;;6.81;60.25
84522;BME280;74758;50.066;20.008;2023-12-20T06:13:24;98534.30;;;6.76;60.19
84522;BME280;74758;50.066;20.008;2023-12-20T06:15:27;98536.41;;;6.74;60.52
84522;BME280;74758;50.066;20.008;2023-12-20T06:17:29;98536.98;;;6.72;60.84
84522;BME280;74758;50.066;20.008;2023-12-20T06:19:32;98541.23;;;6.71;60.80
84522;BME280;74758;50.066;20.008;2023-12-20T06:21:35;98538.38;;;6.70;61.54
84522;BME280;74758;50.066;20.008;2023-12-20T06:23:37;98538.52;;;6.68;61.49
84522;BME280;74758;50.066;20.008;2023-12-20T06:25:40;98533.06;;;6.64;61.44
84522;BME280;74758;50.066;20.008;2023-12-20T06:27:42;98532.36;;;6.62;62.07
84522;BME280;74758;50.066;20.008;2023-12-20T06:29:46;98535.50;;;6.60;62.20
84522;BME280;74758;50.066;20.008;2023-12-20T06:31:50;98538.88;;;6.57;62.27
84522;BME280;74758;50.066;20.008;2023-12-20T06:33:53;98537.63;;;6.56;62.12
84522;BME280;74758;50.066;20.008;2023-12-20T06:36:00;98541.20;;;6.53;62.80
84522;BME280;74758;50.066;20.008;2023-12-20T06:38:04;98541.23;;;6.50;63.01
84522;BME280;74758;50.066;20.008;2023-12-20T06:40:09;98538.02;;;6.47;63.06
84522;BME280;74758;50.066;20.008;2023-12-20T06:42:19;98536.08;;;6.45;63.27
84522;BME280;74758;50.066;20.008;2023-12-20T06:44:21;98537.52;;;6.43;63.09
84522;BME280;74758;50.066;20.008;2023-12-20T06:46:24;98533.65;;;6.39;64.53
84522;BME280;74758;50.066;20.008;2023-12-20T06:48:28;98530.27;;;6.33;64.40
84522;BME280;74758;50.066;20.008;2023-12-20T06:50:31;98531.57;;;6.30;64.42
84522;BME280;74758;50.066;20.008;2023-12-20T06:52:34;98533.21;;;6.29;64.60
84522;BME280;74758;50.066;20.008;2023-12-20T06:54:37;98538.29;;;6.29;64.97
84522;BME280;74758;50.066;20.008;2023-12-20T06:56:40;98534.70;;;6.28;64.59
84522;BME280;74758;50.066;20.008;2023-12-20T06:58:43;98530.73;;;6.28;65.31
84522;BME280;74758;50.066;20.008;2023-12-20T07:00:46;98534.46;;;6.27;65.12
84522;BME280;74758;50.066;20.008;2023-12-20T07:02:51;98535.15;;;6.25;64.82
84522;BME280;74758;50.066;20.008;2023-12-20T07:04:54;98535.94;;;6.24;65.49
84522;BME280;74758;50.066;20.008;2023-12-20T07:06:57;98539.42;;;6.22;66.21
84522;BME280;74758;50.066;20.008;2023-12-20T07:09:02;98545.14;;;6.18;65.62
84522;BME280;74758;50.066;20.008;2023-12-20T07:11:05;98542.79;;;6.17;65.60
84522;BME280;74758;50.066;20.008;2023-12-20T07:13:07;98536.94;;;6.16;65.94
84522;BME280;74758;50.066;20.008;2023-12-20T07:15:10;98542.59;;;6.13;66.30
84522;BME280;74758;50.066;20.008;2023-12-20T07:17:13;98546.76;;;6.14;66.36
84522;BME280;74758;50.066;20.008;2023-12-20T07:19:17;98543.35;;;6.15;66.37
84522;BME280;74758;50.066;20.008;2023-12-20T07:21:19;98543.81;;;6.18;66.35
84522;BME280;74758;50.066;20.008;2023-12-20T07:23:21;98549.50;;;6.21;66.68
84522;BME280;74758;50.066;20.008;2023-12-20T07:25:23;98554.88;;;6.21;66.82
84522;BME280;74758;50.066;20.008;2023-12-20T07:27:27;98558.04;;;6.21;66.82
84522;BME280;74758;50.066;20.008;2023-12-20T07:29:30;98559.94;;;6.19;67.21
84522;BME280;74758;50.066;20.008;2023-12-20T07:31:33;98561.30;;;6.17;67.18
84522;BME280;74758;50.066;20.008;2023-12-20T07:33:36;98555.68;;;6.14;67.20
84522;BME280;74758;50.066;20.008;2023-12-20T07:35:40;98552.14;;;6.08;68.06
84522;BME280;74758;50.066;20.008;2023-12-20T07:37:43;98560.05;;;6.03;68.02
84522;BME280;74758;50.066;20.008;2023-12-20T07:39:47;98558.80;;;5.99;67.72
84522;BME280;74758;50.066;20.008;2023-12-20T07:41:50;98563.48;;;5.97;68.26
84522;BME280;74758;50.066;20.008;2023-12-20T07:43:53;98565.27;;;5.97;68.45
84522;BME280;74758;50.066;20.008;2023-12-20T07:45:55;98567.42;;;5.98;69.14
84522;BME280;74758;50.066;20.008;2023-12-20T07:47:58;98567.77;;;5.98;68.87
84522;BME280;74758;50.066;20.008;2023-12-20T07:50:01;98566.66;;;5.96;68.94
84522;BME280;74758;50.066;20.008;2023-12-20T07:52:04;98564.11;;;5.94;68.97
84522;BME280;74758;50.066;20.008;2023-12-20T07:54:06;98562.69;;;5.90;69.51
84522;BME280;74758;50.066;20.008;2023-12-20T07:56:16;98566.70;;;5.85;69.60
84522;BME280;74758;50.066;20.008;2023-12-20T07:58:19;98570.54;;;5.83;69.10
84522;BME280;74758;50.066;20.008;2023-12-20T08:00:24;98566.53;;;5.81;70.03
84522;BME280;74758;50.066;20.008;2023-12-20T08:02:26;98575.10;;;5.78;69.84
84522;BME280;74758;50.066;20.008;2023-12-20T08:04:29;98572.39;;;5.77;69.64
84522;BME280;74758;50.066;20.008;2023-12-20T08:06:32;98570.36;;;5.79;69.49
84522;BME280;74758;50.066;20.008;2023-12-20T08:08:34;98575.89;;;5.81;69.27
84522;BME280;74758;50.066;20.008;2023-12-20T08:10:37;98576.30;;;5.83;69.95
84522;BME280;74758;50.066;20.008;2023-12-20T08:12:48;98566.86;;;5.81;70.10
84522;BME280;74758;50.066;20.008;2023-12-20T08:14:57;98576.57;;;5.80;70.08
84522;BME280;74758;50.066;20.008;2023-12-20T08:16:59;98583.02;;;5.78;70.33
84522;BME280;74758;50.066;20.008;2023-12-20T08:19:01;98579.16;;;5.73;70.34
84522;BME280;74758;50.066;20.008;2023-12-20T08:21:03;98582.03;;;5.70;70.23
84522;BME280;74758;50.066;20.008;2023-12-20T08:23:05;98579.14;;;5.67;70.12
84522;BME280;74758;50.066;20.008;2023-12-20T08:25:08;98576.58;;;5.64;70.21
84522;BME280;74758;50.066;20.008;2023-12-20T08:27:11;98566.70;;;5.61;70.35
84522;BME280;74758;50.066;20.008;2023-12-20T08:29:14;98571.57;;;5.62;70.66
84522;BME280;74758;50.066;20.008;2023-12-20T08:31:17;98566.84;;;5.62;70.57
84522;BME280;74758;50.066;20.008;2023-12-20T08:33:20;98570.73;;;5.63;70.45
84522;BME280;74758;50.066;20.008;2023-12-20T08:35:22;98568.33;;;5.65;70.62
84522;BME280;74758;50.066;20.008;2023-12-20T08:37:26;98563.09;;;5.65;70.94
84522;BME280;74758;50.066;20.008;2023-12-20T08:39:28;98561.00;;;5.65;70.51
84522;BME280;74758;50.066;20.008;2023-12-20T08:41:32;98557.80;;;5.64;71.22
84522;BME280;74758;50.066;20.008;2023-12-20T08:43:35;98566.77;;;5.61;71.14
84522;BME280;74758;50.066;20.008;2023-12-20T08:45:38;98566.61;;;5.58;71.25
84522;BME280;74758;50.066;20.008;2023-12-20T08:47:41;98568.85;;;5.56;71.31
84522;BME280;74758;50.066;20.008;2023-12-20T08:49:45;98576.71;;;5.56;71.89
84522;BME280;74758;50.066;20.008;2023-12-20T08:51:48;98571.20;;;5.55;71.38
84522;BME280;74758;50.066;20.008;2023-12-20T08:53:51;98573.83;;;5.55;71.22
84522;BME280;74758;50.066;20.008;2023-12-20T08:55:53;98569.35;;;5.57;71.79
84522;BME280;74758;50.066;20.008;2023-12-20T08:57:56;98574.94;;;5.57;71.14
84522;BME280;74758;50.066;20.008;2023-12-20T08:59:59;98571.38;;;5.53;71.42
84522;BME280;74758;50.066;20.008;2023-12-20T09:02:01;98571.84;;;5.50;72.01
84522;BME280;74758;50.066;20.008;2023-12-20T09:04:03;98572.54;;;5.48;72.11
84522;BME280;74758;50.066;20.008;2023-12-20T09:06:07;98571.19;;;5.47;71.98
84522;BME280;74758;50.066;20.008;2023-12-20T09:08:10;98574.75;;;5.46;71.84
84522;BME280;74758;50.066;20.008;2023-12-20T09:10:12;98566.86;;;5.44;71.94
84522;BME280;74758;50.066;20.008;2023-12-20T09:12:15;98572.45;;;5.44;72.12
84522;BME280;74758;50.066;20.008;2023-12-20T09:14:17;98575.16;;;5.46;71.84
84522;BME280;74758;50.066;20.008;2023-12-20T09:16:20;98576.34;;;5.46;71.52
84522;BME280;74758;50.066;20.008;2023-12-20T09:18:23;98576.08;;;5.49;71.31
84522;BME280;74758;50.066;20.008;2023-12-20T09:20:24;98571.56;;;5.49;72.39
84522;BME280;74758;50.066;20.008;2023-12-20T09:22:27;98571.10;;;5.46;72.31
84522;BME280;74758;50.066;20.008;2023-12-20T09:24:30;98570.93;;;5.44;71.95
84522;BME280;74758;50.066;20.008;2023-12-20T09:26:32;98561.15;;;5.42;72.24
84522;BME280;74758;50.066;20.008;2023-12-20T09:28:34;98565.36;;;5.39;72.25
84522;BME280;74758;50.066;20.008;2023-12-20T09:30:39;98571.47;;;5.37;72.14
84522;BME280;74758;50.066;20.008;2023-12-20T09:32:42;98569.02;;;5.35;72.71
84522;BME280;74758;50.066;20.008;2023-12-20T09:34:47;98567.80;;;5.35;72.49
84522;BME280;74758;50.066;20.008;2023-12-20T09:36:50;98564.77;;;5.34;72.61
84522;BME280;74758;50.066;20.008;2023-12-20T09:38:52;98565.66;;;5.36;72.39
84522;BME280;74758;50.066;20.008;2023-12-20T09:40:53;98564.98;;;5.37;72.21
84522;BME280;74758;50.066;20.008;2023-12-20T09:43:10;98563.84;;;5.38;72.23
84522;BME280;74758;50.066;20.008;2023-12-20T09:45:15;98553.27;;;5.38;72.54
84522;BME280;74758;50.066;20.008;2023-12-20T09:47:20;98555.63;;;5.34;72.34
84522;BME280;74758;50.066;20.008;2023-12-20T09:49:27;98558.30;;;5.34;72.51
84522;BME280;74758;50.066;20.008;2023-12-20T09:51:30;98554.27;;;5.32;72.89
84522;BME280;74758;50.066;20.008;2023-12-20T09:53:35;98555.02;;;5.29;72.72
84522;BME280;74758;50.066;20.008;2023-12-20T09:55:39;98548.66;;;5.30;72.68
84522;BME280;74758;50.066;20.008;2023-12-20T09:57:42;98544.89;;;5.33;72.40
84522;BME280;74758;50.066;20.008;2023-12-20T09:59:45;98542.46;;;5.36;72.99
84522;BME280;74758;50.066;20.008;2023-12-20T10:01:48;98539.88;;;5.35;72.66
84522;BME280;74758;50.066;20.008;2023-12-20T10:03:51;98542.73;;;5.34;72.56
84522;BME280;74758;50.066;20.008;2023-12-20T10:05:56;98536.41;;;5.31;72.64
84522;BME280;74758;50.066;20.008;2023-12-20T10:08:01;98534.83;;;5.31;72.97
84522;BME280;74758;50.066;20.008;2023-12-20T10:10:05;98533.23;;;5.32;72.90
84522;BME280;74758;50.066;20.008;2023-12-20T10:12:08;98531.64;;;5.32;72.67
84522;BME280;74758;50.066;20.008;2023-12-20T10:14:11;98532.33;;;5.34;73.04
84522;BME280;74758;50.066;20.008;2023-12-20T10:16:14;98525.59;;;5.35;72.78
84522;BME280;74758;50.066;20.008;2023-12-20T10:18:17;98524.83;;;5.36;72.51
84522;BME280;74758;50.066;20.008;2023-12-20T10:20:19;98528.46;;;5.36;72.15
84522;BME280;74758;50.066;20.008;2023-12-20T10:22:22;98527.42;;;5.34;72.82
84522;BME280;74758;50.066;20.008;2023-12-20T10:24:25;98526.36;;;5.28;72.64
84522;BME280;74758;50.066;20.008;2023-12-20T10:26:28;98525.58;;;5.23;72.50
84522;BME280;74758;50.066;20.008;2023-12-20T10:28:35;98530.79;;;5.21;72.90
84522;BME280;74758;50.066;20.008;2023-12-20T10:30:38;98530.02;;;5.19;73.21
84522;BME280;74758;50.066;20.008;2023-12-20T10:32:41;98534.02;;;5.19;73.42
84522;BME280;74758;50.066;20.008;2023-12-20T10:34:43;98532.29;;;5.19;73.08
84522;BME280;74758;50.066;20.008;2023-12-20T10:36:45;98531.48;;;5.18;73.09
84522;BME280;74758;50.066;20.008;2023-12-20T10:38:50;98531.15;;;5.16;73.47
84522;BME280;74758;50.066;20.008;2023-12-20T10:40:57;98532.88;;;5.14;72.81
84522;BME280;74758;50.066;20.008;2023-12-20T10:43:03;98530.67;;;5.11;73.08
84522;BME280;74758;50.066;20.008;2023-12-20T10:45:05;98533.11;;;5.08;72.86
84522;BME280;74758;50.066;20.008;2023-12-20T10:47:07;98531.33;;;5.07;72.93
84522;BME280;74758;50.066;20.008;2023-12-20T10:49:10;98530.85;;;5.08;72.67
84522;BME280;74758;50.066;20.008;2023-12-20T10:51:15;98522.37;;;5.10;72.81